createdAt,value
2022-08-31T00:00:38.628Z,99372.16
2022-08-31T00:03:25.223Z,99370.06
2022-08-31T00:05:58.496Z,99380.78
2022-08-31T00:08:28.174Z,99374.03
2022-08-31T00:10:56.835Z,99367.59
2022-08-31T00:13:28.499Z,99380.78
2022-08-31T00:15:59.679Z,99378.00
2022-08-31T00:18:28.174Z,99381.59
2022-08-31T00:20:56.605Z,99380.44
2022-08-31T00:23:28.123Z,99382.41
2022-08-31T00:25:56.662Z,99385.69
2022-08-31T00:28:25.384Z,99391.28
2022-08-31T00:30:53.940Z,99383.72
2022-08-31T00:33:23.747Z,99384.53
2022-08-31T00:35:52.403Z,99378.94
2022-08-31T00:38:23.302Z,99387.34
2022-08-31T00:40:51.841Z,99382.09
2022-08-31T00:43:46.088Z,99375.03
2022-08-31T00:46:19.139Z,99375.53
2022-08-31T00:48:58.839Z,99374.22
2022-08-31T00:51:29.176Z,99384.28
2022-08-31T00:53:58.505Z,99375.03
2022-08-31T00:56:28.165Z,99369.34
2022-08-31T00:58:56.715Z,99379.69
2022-08-31T01:01:25.726Z,99365.22
2022-08-31T01:03:56.365Z,99373.13
2022-08-31T01:06:25.942Z,99373.13
2022-08-31T01:08:57.212Z,99369.03
2022-08-31T01:11:25.899Z,99365.75
2022-08-31T01:13:54.409Z,99373.31
2022-08-31T01:16:29.395Z,99375.97
2022-08-31T01:19:02.878Z,99367.94
2022-08-31T01:21:38.998Z,99364.19
2022-08-31T01:24:09.774Z,99368.13
2022-08-31T01:26:39.875Z,99360.44
2022-08-31T01:29:09.536Z,99359.94
2022-08-31T01:31:42.480Z,99355.84
2022-08-31T01:34:11.718Z,99355.84
2022-08-31T01:36:43.845Z,99353.75
2022-08-31T01:39:13.736Z,99347.31
2022-08-31T01:41:44.203Z,99353.28
2022-08-31T01:44:14.433Z,99355.59
2022-08-31T01:46:43.961Z,99355.91
2022-08-31T01:49:13.109Z,99351.81
2022-08-31T01:51:41.579Z,99354.16
2022-08-31T01:54:10.699Z,99355.66
2022-08-31T01:56:43.510Z,99360.28
2022-08-31T01:59:15.422Z,99367.03
2022-08-31T02:01:47.800Z,99366.56
2022-08-31T02:04:18.815Z,99360.00
2022-08-31T02:06:52.125Z,99364.28
2022-08-31T02:09:21.689Z,99366.63
2022-08-31T02:11:51.864Z,99353.31
2022-08-31T02:14:21.262Z,99357.28
2022-08-31T02:16:50.690Z,99365.97
2022-08-31T02:19:19.688Z,99358.78
2022-08-31T02:21:48.157Z,99347.09
2022-08-31T02:24:16.749Z,99348.25
2022-08-31T02:26:45.471Z,99347.44
2022-08-31T02:29:15.564Z,99344.97
2022-08-31T02:31:43.950Z,99346.94
2022-08-31T02:34:12.445Z,99334.97
2022-08-31T02:36:42.985Z,99344.50
2022-08-31T02:39:11.976Z,99338.09
2022-08-31T02:41:42.886Z,99335.59
2022-08-31T02:44:11.390Z,99327.53
2022-08-31T02:46:41.261Z,99327.53
2022-08-31T02:49:09.731Z,99317.53
2022-08-31T02:51:42.630Z,99322.31
2022-08-31T02:54:11.660Z,99313.09
2022-08-31T02:56:40.083Z,99313.91
2022-08-31T02:59:08.965Z,99307.50
2022-08-31T03:01:39.029Z,99310.28
2022-08-31T03:04:09.067Z,99308.66
2022-08-31T03:06:37.559Z,99310.28
2022-08-31T03:09:06.144Z,99306.69
2022-08-31T03:11:34.822Z,99312.28
2022-08-31T03:14:03.270Z,99302.25
2022-08-31T03:16:32.832Z,99300.28
2022-08-31T03:19:01.452Z,99299.47
2022-08-31T03:21:31.298Z,99301.91
2022-08-31T03:23:59.703Z,99303.56
2022-08-31T03:26:28.229Z,99307.50
2022-08-31T03:28:56.973Z,99304.69
2022-08-31T03:31:26.229Z,99313.09
2022-08-31T03:33:54.656Z,99315.88
2022-08-31T03:36:23.073Z,99315.88
2022-08-31T03:38:52.838Z,99319.50
2022-08-31T03:41:25.882Z,99321.81
2022-08-31T03:43:55.335Z,99314.25
2022-08-31T03:46:24.538Z,99326.28
2022-08-31T03:48:54.737Z,99319.84
2022-08-31T03:51:23.161Z,99314.25
2022-08-31T03:53:53.015Z,99319.03
2022-08-31T03:56:22.294Z,99323.78
2022-08-31T03:58:50.812Z,99328.56
2022-08-31T04:01:19.305Z,99335.31
2022-08-31T04:03:47.755Z,99336.94
2022-08-31T04:06:16.140Z,99340.56
2022-08-31T04:08:44.598Z,99340.56
2022-08-31T04:11:18.434Z,99336.16
2022-08-31T04:13:54.373Z,99338.13
2022-08-31T04:16:24.859Z,99340.09
2022-08-31T04:18:54.305Z,99345.31
2022-08-31T04:21:26.401Z,99343.72
2022-08-31T04:23:55.905Z,99348.13
2022-08-31T04:26:29.062Z,99351.28
2022-08-31T04:28:57.864Z,99350.13
2022-08-31T04:31:29.676Z,99356.50
2022-08-31T04:34:00.306Z,99351.44
2022-08-31T04:36:30.158Z,99349.13
2022-08-31T04:39:02.803Z,99354.69
2022-08-31T04:41:36.336Z,99352.69
2022-08-31T04:44:05.871Z,99358.47
2022-08-31T04:46:36.735Z,99360.13
2022-08-31T04:49:07.981Z,99358.28
2022-08-31T04:51:37.606Z,99363.53
2022-08-31T04:54:10.348Z,99364.00
2022-08-31T04:56:43.584Z,99365.31
2022-08-31T04:59:15.637Z,99364.66
2022-08-31T05:01:47.916Z,99368.75
2022-08-31T05:04:17.324Z,99364.94
2022-08-31T05:06:47.907Z,99373.59
2022-08-31T05:09:19.378Z,99362.69
2022-08-31T05:11:50.189Z,99364.94
2022-08-31T05:14:18.933Z,99365.69
2022-08-31T05:16:47.637Z,99372.84
2022-08-31T05:19:16.077Z,99364.88
2022-08-31T05:21:45.533Z,99378.47
2022-08-31T05:24:18.260Z,99372.44
2022-08-31T05:26:51.060Z,99377.59
2022-08-31T05:29:21.703Z,99378.81
2022-08-31T05:31:52.614Z,99379.31
2022-08-31T05:34:21.919Z,99377.53
2022-08-31T05:36:54.019Z,99372.03
2022-08-31T05:39:22.603Z,99375.47
2022-08-31T05:41:55.556Z,99369.97
2022-08-31T05:44:28.868Z,99371.59
2022-08-31T05:47:03.884Z,99371.72
2022-08-31T05:49:32.827Z,99379.88
2022-08-31T05:52:01.832Z,99365.09
2022-08-31T05:54:30.609Z,99370.69
2022-08-31T05:57:01.130Z,99363.09
2022-08-31T05:59:31.149Z,99364.28
2022-08-31T06:02:00.094Z,99369.88
2022-08-31T06:04:29.406Z,99372.16
2022-08-31T06:06:58.343Z,99376.78
2022-08-31T06:09:27.287Z,99371.00
2022-08-31T06:11:55.687Z,99376.81
2022-08-31T06:14:25.942Z,99379.84
2022-08-31T06:16:56.693Z,99379.13
2022-08-31T06:19:25.886Z,99385.22
2022-08-31T06:21:54.609Z,99380.16
2022-08-31T06:24:23.086Z,99381.50
2022-08-31T06:26:59.668Z,99381.69
2022-08-31T06:29:31.433Z,99376.50
2022-08-31T06:32:00.671Z,99382.97
2022-08-31T06:34:30.016Z,99374.97
2022-08-31T06:36:58.407Z,99385.50
2022-08-31T06:39:26.827Z,99380.22
2022-08-31T06:41:56.015Z,99373.34
2022-08-31T06:44:25.197Z,99378.50
2022-08-31T06:46:55.229Z,99375.59
2022-08-31T06:49:24.861Z,99372.78
2022-08-31T06:51:53.289Z,99378.88
2022-08-31T06:54:31.166Z,99377.69
2022-08-31T06:57:00.360Z,99376.16
2022-08-31T06:59:29.990Z,99377.88
2022-08-31T07:02:02.153Z,99382.75
2022-08-31T07:04:35.907Z,99383.59
2022-08-31T07:07:06.487Z,99386.03
2022-08-31T07:09:35.080Z,99377.97
2022-08-31T07:12:05.091Z,99384.41
2022-08-31T07:14:33.529Z,99380.84
2022-08-31T07:17:04.620Z,99394.56
2022-08-31T07:19:33.158Z,99387.41
2022-08-31T07:22:05.439Z,99386.31
2022-08-31T07:24:36.257Z,99375.13
2022-08-31T07:27:10.249Z,99372.91
2022-08-31T07:29:41.391Z,99377.06
2022-08-31T07:32:13.955Z,99371.22
2022-08-31T07:34:44.203Z,99371.38
2022-08-31T07:37:30.408Z,99368.75
2022-08-31T07:40:16.612Z,99366.91
2022-08-31T07:42:48.355Z,99369.97
2022-08-31T07:45:23.307Z,99360.06
2022-08-31T07:47:56.450Z,99360.56
2022-08-31T07:50:27.009Z,99355.88
2022-08-31T07:52:58.505Z,99356.31
2022-08-31T07:55:29.448Z,99351.94
2022-08-31T07:57:58.416Z,99350.84
2022-08-31T08:00:33.270Z,99352.09
2022-08-31T08:03:08.370Z,99346.97
2022-08-31T08:05:41.773Z,99354.00
2022-08-31T08:08:13.967Z,99350.97
2022-08-31T08:10:52.293Z,99352.34
2022-08-31T08:13:22.646Z,99352.16
2022-08-31T08:15:52.471Z,99357.84
2022-08-31T08:18:23.105Z,99355.94
2022-08-31T08:20:53.017Z,99349.94
2022-08-31T08:23:28.014Z,99350.13
2022-08-31T08:26:01.686Z,99356.06
2022-08-31T08:28:40.786Z,99355.16
2022-08-31T08:31:16.050Z,99356.59
2022-08-31T08:33:46.901Z,99356.09
2022-08-31T08:36:18.614Z,99349.53
2022-08-31T08:38:50.569Z,99354.22
2022-08-31T08:41:23.114Z,99356.41
2022-08-31T08:43:57.246Z,99359.34
2022-08-31T08:46:35.948Z,99358.63
2022-08-31T08:49:19.017Z,99350.72
2022-08-31T08:51:51.203Z,99348.50
2022-08-31T08:54:32.008Z,99349.47
2022-08-31T08:57:12.943Z,99361.78
2022-08-31T08:59:43.266Z,99353.91
2022-08-31T09:02:17.354Z,99357.22
2022-08-31T09:05:09.113Z,99350.00
2022-08-31T09:08:11.575Z,99346.47
2022-08-31T09:10:46.774Z,99353.06
2022-08-31T09:13:31.886Z,99352.31
2022-08-31T09:16:20.689Z,99344.25
2022-08-31T09:18:55.100Z,99349.94
2022-08-31T09:21:28.975Z,99352.38
2022-08-31T09:24:03.664Z,99340.63
2022-08-31T09:26:35.737Z,99351.94
2022-08-31T09:29:05.125Z,99350.72
2022-08-31T09:31:38.425Z,99350.72
2022-08-31T09:34:13.955Z,99343.09
2022-08-31T09:36:43.933Z,99345.22
2022-08-31T09:39:19.689Z,99338.50
2022-08-31T09:41:50.212Z,99327.69
2022-08-31T09:44:32.617Z,99327.75
2022-08-31T09:47:05.406Z,99326.69
2022-08-31T09:49:37.750Z,99322.34
2022-08-31T09:52:45.974Z,99315.13
2022-08-31T09:55:21.576Z,99324.91
2022-08-31T09:57:59.133Z,99316.81
2022-08-31T10:00:39.891Z,99316.03
2022-08-31T10:03:20.925Z,99312.38
2022-08-31T10:05:52.511Z,99308.69
2022-08-31T10:08:41.087Z,99315.59
2022-08-31T10:11:17.580Z,99307.00
2022-08-31T10:13:57.282Z,99314.31
2022-08-31T10:16:34.791Z,99313.47
2022-08-31T10:19:07.769Z,99306.56
2022-08-31T10:21:52.367Z,99303.72
2022-08-31T10:24:33.344Z,99305.34
2022-08-31T10:27:17.325Z,99304.16
2022-08-31T10:29:56.242Z,99300.91
2022-08-31T10:32:38.659Z,99298.88
2022-08-31T10:35:15.037Z,99306.56
2022-08-31T10:37:58.031Z,99305.38
2022-08-31T10:40:32.636Z,99298.09
2022-08-31T10:43:17.054Z,99303.38
2022-08-31T10:45:51.135Z,99296.47
2022-08-31T10:48:22.294Z,99304.97
2022-08-31T10:51:05.968Z,99296.47
2022-08-31T10:53:51.936Z,99303.78
2022-08-31T10:56:37.365Z,99305.81
2022-08-31T10:59:20.347Z,99303.34
2022-08-31T11:02:00.749Z,99306.16
2022-08-31T11:04:58.501Z,99305.41
2022-08-31T11:07:46.004Z,99304.59
2022-08-31T11:10:28.491Z,99310.28
2022-08-31T11:13:02.551Z,99310.72
2022-08-31T11:15:58.378Z,99315.16
2022-08-31T11:19:11.698Z,99310.66
2022-08-31T11:22:21.396Z,99309.03
2022-08-31T11:25:25.086Z,99312.63
2022-08-31T11:28:01.605Z,99307.63
2022-08-31T11:30:33.568Z,99308.31
2022-08-31T11:33:07.704Z,99304.88
2022-08-31T11:36:06.393Z,99302.41
2022-08-31T11:38:54.783Z,99308.75
2022-08-31T11:41:46.854Z,99309.94
2022-08-31T11:45:03.226Z,99308.69
2022-08-31T11:47:44.360Z,99314.31
2022-08-31T11:50:54.188Z,99318.00
2022-08-31T11:53:35.018Z,99317.63
2022-08-31T11:56:05.226Z,99314.00
2022-08-31T11:58:39.445Z,99307.47
2022-08-31T12:01:36.634Z,99309.88
2022-08-31T12:04:06.587Z,99313.50
2022-08-31T12:07:09.337Z,99313.25
2022-08-31T12:10:19.242Z,99319.84
2022-08-31T12:13:05.566Z,99317.97
2022-08-31T12:16:02.027Z,99314.03
2022-08-31T12:18:52.091Z,99312.50
2022-08-31T12:21:47.600Z,99318.31
2022-08-31T12:24:34.165Z,99322.84
2022-08-31T12:27:27.435Z,99319.25
2022-08-31T12:30:22.754Z,99315.66
2022-08-31T12:33:01.169Z,99318.03
2022-08-31T12:35:34.180Z,99316.84
2022-08-31T12:38:07.180Z,99316.41
2022-08-31T12:40:42.314Z,99314.78
2022-08-31T12:43:18.244Z,99311.97
2022-08-31T12:46:21.712Z,99315.63
2022-08-31T12:49:21.843Z,99320.91
2022-08-31T12:51:57.127Z,99317.25
2022-08-31T12:55:09.450Z,99311.97
2022-08-31T12:57:50.903Z,99305.88
2022-08-31T13:00:28.159Z,99318.03
2022-08-31T13:03:00.986Z,99310.72
2022-08-31T13:05:33.543Z,99317.13
2022-08-31T13:08:21.032Z,99318.28
2022-08-31T13:10:49.529Z,99311.34
2022-08-31T13:13:25.612Z,99324.25
2022-08-31T13:16:04.662Z,99318.50
2022-08-31T13:18:33.733Z,99325.31
2022-08-31T13:21:05.997Z,99323.22
2022-08-31T13:23:39.662Z,99323.53
2022-08-31T13:26:20.167Z,99325.81
2022-08-31T13:28:54.940Z,99314.38
2022-08-31T13:31:28.251Z,99315.97
2022-08-31T13:34:01.221Z,99306.13
2022-08-31T13:36:34.488Z,99314.53
2022-08-31T13:39:16.149Z,99313.13
2022-08-31T13:41:57.634Z,99311.75
2022-08-31T13:44:27.906Z,99313.72
2022-08-31T13:47:02.095Z,99320.44
2022-08-31T13:49:36.432Z,99317.09
2022-08-31T13:52:08.271Z,99317.41
2022-08-31T13:54:38.531Z,99316.09
2022-08-31T13:57:20.725Z,99312.69
2022-08-31T13:59:49.780Z,99314.66
2022-08-31T14:02:36.960Z,99312.50
2022-08-31T14:05:13.053Z,99311.66
2022-08-31T14:07:57.260Z,99315.50
2022-08-31T14:10:29.593Z,99310.16
2022-08-31T14:13:01.369Z,99318.91
2022-08-31T14:15:38.360Z,99310.66
2022-08-31T14:18:24.989Z,99310.94
2022-08-31T14:21:23.499Z,99312.00
2022-08-31T14:24:01.356Z,99304.28
2022-08-31T14:26:35.249Z,99306.16
2022-08-31T14:29:10.717Z,99301.22
2022-08-31T14:31:48.675Z,99308.81
2022-08-31T14:34:28.304Z,99307.13
2022-08-31T14:37:04.140Z,99309.50
2022-08-31T14:39:36.884Z,99314.28
2022-08-31T14:42:10.277Z,99310.50
2022-08-31T14:44:41.803Z,99316.03
2022-08-31T14:47:11.742Z,99323.06
2022-08-31T14:49:45.582Z,99320.03
2022-08-31T14:52:14.665Z,99314.59
2022-08-31T14:54:43.620Z,99324.94
2022-08-31T14:57:25.424Z,99322.78
2022-08-31T14:59:57.684Z,99327.16
2022-08-31T15:02:28.082Z,99314.56
2022-08-31T15:04:58.997Z,99320.59
2022-08-31T15:07:32.264Z,99323.69
2022-08-31T15:10:01.048Z,99324.00
2022-08-31T15:12:30.873Z,99317.03
2022-08-31T15:15:00.048Z,99318.50
2022-08-31T15:17:33.931Z,99326.78
2022-08-31T15:20:03.447Z,99333.88
2022-08-31T15:22:33.296Z,99326.56
2022-08-31T15:25:02.690Z,99325.66
2022-08-31T15:27:32.889Z,99334.84
2022-08-31T15:30:07.905Z,99338.03
2022-08-31T15:32:39.844Z,99335.13
2022-08-31T15:35:13.914Z,99338.31
2022-08-31T15:37:45.229Z,99346.75
2022-08-31T15:40:19.017Z,99343.06
2022-08-31T15:42:51.047Z,99340.25
2022-08-31T15:45:20.149Z,99342.25
2022-08-31T15:48:06.273Z,99346.22
2022-08-31T15:50:36.347Z,99347.72
2022-08-31T15:53:09.937Z,99347.53
2022-08-31T15:55:40.978Z,99345.75
2022-08-31T15:58:12.728Z,99352.34
2022-08-31T16:00:42.317Z,99347.38
2022-08-31T16:03:12.625Z,99342.03
2022-08-31T16:05:43.666Z,99353.09
2022-08-31T16:08:13.347Z,99351.38
2022-08-31T16:10:48.514Z,99350.38
2022-08-31T16:13:19.440Z,99352.66
2022-08-31T16:15:52.649Z,99348.47
2022-08-31T16:18:22.768Z,99348.41
2022-08-31T16:20:52.064Z,99365.44
2022-08-31T16:23:21.418Z,99366.38
2022-08-31T16:25:49.963Z,99359.75
2022-08-31T16:28:21.715Z,99368.81
2022-08-31T16:30:52.031Z,99360.19
2022-08-31T16:33:21.683Z,99367.25
2022-08-31T16:35:51.022Z,99375.47
2022-08-31T16:38:20.234Z,99370.47
2022-08-31T16:40:50.263Z,99373.44
2022-08-31T16:43:20.301Z,99370.78
2022-08-31T16:45:49.069Z,99384.56
2022-08-31T16:48:43.843Z,99382.84
2022-08-31T16:51:15.176Z,99383.44
2022-08-31T16:53:47.963Z,99386.50
2022-08-31T16:56:16.929Z,99393.91
2022-08-31T16:58:54.296Z,99392.84
2022-08-31T17:01:26.300Z,99396.97
2022-08-31T17:03:58.377Z,99390.19
2022-08-31T17:06:29.335Z,99394.19
2022-08-31T17:09:00.466Z,99388.91
2022-08-31T17:11:32.430Z,99401.63
2022-08-31T17:14:05.684Z,99393.56
2022-08-31T17:16:37.572Z,99401.59
2022-08-31T17:19:11.624Z,99403.34
2022-08-31T17:21:49.777Z,99398.78
2022-08-31T17:24:23.562Z,99403.09
2022-08-31T17:26:54.031Z,99400.94
2022-08-31T17:29:24.367Z,99402.34
2022-08-31T17:31:56.298Z,99406.97
2022-08-31T17:34:28.118Z,99405.56
2022-08-31T17:37:00.448Z,99410.22
2022-08-31T17:39:30.349Z,99406.81
2022-08-31T17:41:59.262Z,99405.50
2022-08-31T17:44:31.048Z,99409.34
2022-08-31T17:47:01.797Z,99406.91
2022-08-31T17:49:31.920Z,99413.66
2022-08-31T17:52:08.974Z,99412.34
2022-08-31T17:54:42.089Z,99424.28
2022-08-31T17:57:13.777Z,99423.78
2022-08-31T17:59:46.797Z,99431.22
2022-08-31T18:02:19.125Z,99436.34
2022-08-31T18:04:47.803Z,99443.81
2022-08-31T18:07:16.659Z,99433.63
2022-08-31T18:09:47.081Z,99445.03
2022-08-31T18:12:17.015Z,99442.75
2022-08-31T18:14:46.794Z,99449.72
2022-08-31T18:17:17.260Z,99453.84
2022-08-31T18:19:46.389Z,99455.56
2022-08-31T18:22:15.802Z,99456.09
2022-08-31T18:24:44.788Z,99457.81
2022-08-31T18:27:15.664Z,99461.94
2022-08-31T18:29:46.417Z,99467.56
2022-08-31T18:32:16.218Z,99470.91
2022-08-31T18:34:47.262Z,99470.59
2022-08-31T18:37:22.283Z,99468.00
2022-08-31T18:40:08.904Z,99479.84
2022-08-31T18:42:57.018Z,99473.59
2022-08-31T18:45:27.811Z,99477.59
2022-08-31T18:50:49.767Z,99470.53
2022-08-31T18:53:29.465Z,99470.53
2022-08-31T18:56:08.687Z,99476.31
2022-08-31T18:58:37.727Z,99488.31
2022-08-31T19:01:11.605Z,99476.97
2022-08-31T19:03:41.758Z,99485.00
2022-08-31T19:06:16.812Z,99484.53
2022-08-31T19:08:45.745Z,99479.75
2022-08-31T19:11:14.861Z,99474.53
2022-08-31T19:13:45.756Z,99485.69
2022-08-31T19:16:19.897Z,99477.47
2022-08-31T19:18:49.252Z,99482.25
2022-08-31T19:21:21.574Z,99476.50
2022-08-31T19:23:51.760Z,99479.31
2022-08-31T19:26:23.688Z,99489.19
2022-08-31T19:28:52.207Z,99487.53
2022-08-31T19:31:24.382Z,99485.06
2022-08-31T19:33:57.119Z,99477.50
2022-08-31T19:36:27.694Z,99487.22
2022-08-31T19:39:00.686Z,99480.78
2022-08-31T19:41:30.617Z,99474.88
2022-08-31T19:44:08.593Z,99481.28
2022-08-31T19:46:41.662Z,99478.97
2022-08-31T19:49:12.611Z,99471.06
2022-08-31T19:51:43.990Z,99471.25
2022-08-31T19:54:13.251Z,99465.44
2022-08-31T19:56:45.037Z,99472.03
2022-08-31T19:59:18.454Z,99474.97
2022-08-31T20:01:52.974Z,99466.75
2022-08-31T20:04:23.505Z,99469.34
2022-08-31T20:06:52.540Z,99474.25
2022-08-31T20:09:22.703Z,99471.94
2022-08-31T20:11:53.337Z,99472.13
2022-08-31T20:14:23.512Z,99475.41
2022-08-31T20:16:54.951Z,99475.06
2022-08-31T20:19:25.800Z,99476.38
2022-08-31T20:21:56.219Z,99465.38
2022-08-31T20:24:27.030Z,99461.88
2022-08-31T20:27:01.700Z,99461.22
2022-08-31T20:29:38.708Z,99456.94
2022-08-31T20:32:09.314Z,99463.47
2022-08-31T20:34:38.703Z,99466.75
2022-08-31T20:37:07.702Z,99465.75
2022-08-31T20:39:39.414Z,99463.09
2022-08-31T20:42:08.342Z,99470.00
2022-08-31T20:44:38.790Z,99463.59
2022-08-31T20:47:30.441Z,99466.03
2022-08-31T20:50:07.333Z,99470.13
2022-08-31T20:52:36.553Z,99472.25
2022-08-31T20:55:07.314Z,99470.28
2022-08-31T20:57:40.421Z,99466.31
2022-08-31T21:00:11.370Z,99465.97
2022-08-31T21:02:41.265Z,99466.81
2022-08-31T21:05:37.966Z,99463.69
2022-08-31T21:08:02.541Z,99463.34
2022-08-31T21:10:37.946Z,99472.56
2022-08-31T21:13:09.534Z,99465.31
2022-08-31T21:15:44.142Z,99458.88
2022-08-31T21:18:17.715Z,99459.72
2022-08-31T21:20:47.303Z,99464.94
2022-08-31T21:23:15.924Z,99468.56
2022-08-31T21:25:47.029Z,99460.53
2022-08-31T21:28:18.322Z,99463.69
2022-08-31T21:30:49.597Z,99470.06
2022-08-31T21:33:20.172Z,99464.00
2022-08-31T21:35:48.911Z,99462.84
2022-08-31T21:38:20.986Z,99463.19
2022-08-31T21:40:50.898Z,99466.31
2022-08-31T21:43:20.146Z,99469.47
2022-08-31T21:45:55.052Z,99476.22
2022-08-31T21:48:25.997Z,99466.19
2022-08-31T21:50:55.583Z,99464.53
2022-08-31T21:53:25.786Z,99463.41
2022-08-31T21:55:54.561Z,99457.31
2022-08-31T21:58:23.350Z,99459.28
2022-08-31T22:00:55.981Z,99456.03
2022-08-31T22:03:35.799Z,99453.06
2022-08-31T22:06:08.267Z,99460.97
2022-08-31T22:08:37.785Z,99458.66
2022-08-31T22:11:09.474Z,99453.41
2022-08-31T22:13:38.493Z,99451.75
2022-08-31T22:16:17.568Z,99450.94
2022-08-31T22:19:02.790Z,99450.13
2022-08-31T22:21:34.748Z,99448.47
2022-08-31T22:24:07.396Z,99447.34
2022-08-31T22:26:39.334Z,99445.34
2022-08-31T22:29:10.788Z,99442.53
2022-08-31T22:31:41.136Z,99448.13
2022-08-31T22:34:12.974Z,99440.09
2022-08-31T22:36:41.741Z,99442.88
2022-08-31T22:39:14.634Z,99436.00
2022-08-31T22:41:44.621Z,99437.16
2022-08-31T22:44:19.201Z,99439.81
2022-08-31T22:46:48.043Z,99438.19
2022-08-31T22:49:18.491Z,99435.22
2022-08-31T22:51:48.603Z,99437.19
2022-08-31T22:54:19.662Z,99432.28
2022-08-31T22:56:49.694Z,99423.44
2022-08-31T22:59:27.085Z,99435.75
2022-08-31T23:02:02.218Z,99426.53
2022-08-31T23:04:35.623Z,99420.47
2022-08-31T23:07:04.706Z,99422.44
2022-08-31T23:09:34.499Z,99421.44
2022-08-31T23:12:05.783Z,99424.91
2022-08-31T23:14:34.409Z,99416.53
2022-08-31T23:17:08.775Z,99422.94
2022-08-31T23:19:43.717Z,99417.69
2022-08-31T23:22:15.233Z,99422.13
2022-08-31T23:24:47.451Z,99415.72
2022-08-31T23:27:18.741Z,99412.09
2022-08-31T23:29:51.574Z,99411.63
2022-08-31T23:32:26.279Z,99412.28
2022-08-31T23:34:58.468Z,99411.63
2022-08-31T23:37:30.173Z,99418.59
2022-08-31T23:40:00.641Z,99419.13
2022-08-31T23:42:34.309Z,99412.03
2022-08-31T23:45:03.456Z,99418.31
2022-08-31T23:47:33.066Z,99416.19
2022-08-31T23:50:05.073Z,99418.50
2022-08-31T23:52:41.566Z,99417.69
2022-08-31T23:55:12.476Z,99416.06
2022-08-31T23:57:41.891Z,99414.56
